Terminal Aerodrome Forecast
Issued by NWS Lubbock, TX

Home | Current Version | Previous Version | Text Only | Print | Product List | Glossary On
Versions: 1 2 3 4 5 6 7 8 9 10 11 12 13 14
000
FTUS44 KLUB 011100
TAFLBB
TAF
KLBB 011123Z 0112/0212 21014KT P6SM FEW100 FEW300
     FM020000 18015KT P6SM FEW300=

USA.gov is the U.S. government's official web portal to all federal, state and local government web resources and services.